createdAt,value
2018-06-18T00:01:44.519Z,17.40
2018-06-18T00:04:18.723Z,17.50
2018-06-18T00:06:52.967Z,17.50
2018-06-18T00:12:01.504Z,17.40
2018-06-18T00:14:35.811Z,17.30
2018-06-18T00:17:10.031Z,17.30
2018-06-18T00:19:44.320Z,17.30
2018-06-18T00:22:19.047Z,17.40
2018-06-18T00:24:53.390Z,17.40
2018-06-18T00:27:27.782Z,17.50
2018-06-18T00:30:02.180Z,17.40
2018-06-18T00:32:36.447Z,17.30
2018-06-18T00:35:10.748Z,17.30
2018-06-18T00:37:44.982Z,17.40
2018-06-18T00:40:19.196Z,17.30
2018-06-18T00:42:53.535Z,17.20
2018-06-18T00:45:27.814Z,17.20
2018-06-18T00:48:02.142Z,17.10
2018-06-18T00:50:36.434Z,17.20
2018-06-18T00:53:10.814Z,17.30
2018-06-18T00:55:56.526Z,17.20
2018-06-18T01:01:05.034Z,17.20
2018-06-18T01:03:39.281Z,17.30
2018-06-18T01:06:13.483Z,17.30
2018-06-18T01:08:47.874Z,17.30
2018-06-18T01:11:22.353Z,17.20
2018-06-18T01:13:56.695Z,17.30
2018-06-18T01:16:30.998Z,17.20
2018-06-18T01:19:05.341Z,17.10
2018-06-18T01:21:39.565Z,17.00
2018-06-18T01:24:19.310Z,17.10
2018-06-18T01:26:53.490Z,17.10
2018-06-18T01:32:01.748Z,17.10
2018-06-18T01:34:36.041Z,17.00
2018-06-18T01:37:10.218Z,17.10
2018-06-18T01:39:44.509Z,17.10
2018-06-18T01:42:18.718Z,17.10
2018-06-18T01:47:27.187Z,16.80
2018-06-18T01:50:01.600Z,16.90
2018-06-18T01:52:36.043Z,17.00
2018-06-18T01:55:10.350Z,17.10
2018-06-18T01:57:44.671Z,17.10
2018-06-18T02:02:53.070Z,17.00
2018-06-18T02:08:01.554Z,17.10
2018-06-18T02:10:35.911Z,17.00
2018-06-18T02:13:10.329Z,17.00
2018-06-18T02:15:44.800Z,17.00
2018-06-18T02:18:18.997Z,17.00
2018-06-18T02:23:27.386Z,16.90
2018-06-18T02:26:01.662Z,16.90
2018-06-18T02:30:45.867Z,16.90
2018-06-18T02:33:25.770Z,16.90
2018-06-18T02:36:05.506Z,16.70
2018-06-18T02:38:45.047Z,16.70
2018-06-18T02:41:19.534Z,16.70
2018-06-18T02:43:53.664Z,16.70
2018-06-18T02:46:27.979Z,16.60
2018-06-18T02:49:02.118Z,16.70
2018-06-18T02:54:10.655Z,16.60
2018-06-18T02:56:54.507Z,16.60
2018-06-18T02:59:28.826Z,16.60
2018-06-18T03:02:03.186Z,16.50
2018-06-18T03:04:37.479Z,16.60
2018-06-18T03:07:11.844Z,16.60
2018-06-18T03:09:46.194Z,16.60
2018-06-18T03:12:20.498Z,16.60
2018-06-18T03:14:54.942Z,16.80
2018-06-18T03:17:29.176Z,16.80
2018-06-18T03:20:08.801Z,16.70
2018-06-18T03:22:48.334Z,16.60
2018-06-18T03:25:27.838Z,16.70
2018-06-18T03:28:07.627Z,16.70
2018-06-18T03:30:41.826Z,16.80
2018-06-18T03:33:16.111Z,16.80
2018-06-18T03:35:50.288Z,16.70
2018-06-18T03:38:25.196Z,16.70
2018-06-18T03:40:59.359Z,16.70
2018-06-18T03:43:35.826Z,16.60
2018-06-18T03:46:10.191Z,16.70
2018-06-18T03:48:44.473Z,16.70
2018-06-18T03:51:18.822Z,16.70
2018-06-18T03:53:53.113Z,16.70
2018-06-18T03:56:27.491Z,16.70
2018-06-18T03:59:01.858Z,16.70
2018-06-18T04:01:49.865Z,16.80
2018-06-18T04:04:29.831Z,16.80
2018-06-18T04:07:09.497Z,16.80
2018-06-18T04:09:49.039Z,16.80
2018-06-18T04:12:23.330Z,16.80
2018-06-18T04:14:57.999Z,16.80
2018-06-18T04:17:32.339Z,18.30
2018-06-18T04:20:06.882Z,16.80
2018-06-18T04:22:41.159Z,16.80
2018-06-18T04:25:15.342Z,16.70
2018-06-18T04:27:49.515Z,16.90
2018-06-18T04:30:23.819Z,16.90
2018-06-18T04:32:57.995Z,16.90
2018-06-18T04:35:32.296Z,16.90
2018-06-18T04:38:06.613Z,17.00
2018-06-18T04:40:40.942Z,16.90
2018-06-18T04:43:20.740Z,16.90
2018-06-18T04:46:00.214Z,17.00
2018-06-18T04:48:39.721Z,17.00
2018-06-18T04:51:13.877Z,17.00
2018-06-18T04:56:22.479Z,17.10
2018-06-18T05:01:31.636Z,17.20
2018-06-18T05:04:05.972Z,17.30
2018-06-18T05:06:40.259Z,17.30
2018-06-18T05:09:25.187Z,17.40
2018-06-18T05:11:59.447Z,17.40
2018-06-18T05:14:33.834Z,17.50
2018-06-18T05:17:08.102Z,17.50
2018-06-18T05:19:42.519Z,17.50
2018-06-18T05:22:19.342Z,17.60
2018-06-18T05:24:53.794Z,17.70
2018-06-18T05:27:30.378Z,17.70
2018-06-18T05:30:09.509Z,17.70
2018-06-18T05:32:43.767Z,17.70
2018-06-18T05:35:18.157Z,17.80
2018-06-18T05:37:56.878Z,17.70
2018-06-18T05:40:31.088Z,17.40
2018-06-18T05:43:05.403Z,17.60
2018-06-18T05:45:39.879Z,17.80
2018-06-18T05:48:14.157Z,17.70
2018-06-18T05:53:22.688Z,17.70
2018-06-18T05:58:31.485Z,17.80
2018-06-18T06:01:05.965Z,17.90
2018-06-18T06:03:40.203Z,17.80
2018-06-18T06:06:14.829Z,17.90
2018-06-18T06:08:48.994Z,18.00
2018-06-18T06:11:23.347Z,18.00
2018-06-18T06:13:57.755Z,18.00
2018-06-18T06:16:32.026Z,18.10
2018-06-18T06:19:06.298Z,17.90
2018-06-18T06:21:40.701Z,17.90
2018-06-18T06:24:15.097Z,18.00
2018-06-18T06:26:49.296Z,17.90
2018-06-18T06:29:23.590Z,17.80
2018-06-18T06:31:57.852Z,17.70
2018-06-18T06:34:32.367Z,17.60
2018-06-18T06:37:06.638Z,17.80
2018-06-18T06:39:40.906Z,17.90
2018-06-18T06:42:17.441Z,17.90
2018-06-18T06:44:51.592Z,17.90
2018-06-18T06:47:25.798Z,17.90
2018-06-18T06:50:00.234Z,17.90
2018-06-18T06:52:34.576Z,17.80
2018-06-18T06:55:08.770Z,17.70
2018-06-18T06:57:43.047Z,17.80
2018-06-18T07:00:17.271Z,17.70
2018-06-18T07:02:51.554Z,17.70
2018-06-18T07:05:25.869Z,17.70
2018-06-18T07:08:00.224Z,17.60
2018-06-18T07:10:34.611Z,17.70
2018-06-18T07:13:08.787Z,17.60
2018-06-18T07:15:43.150Z,17.70
2018-06-18T07:18:17.462Z,17.70
2018-06-18T07:20:51.698Z,17.70
2018-06-18T07:26:00.225Z,17.70
2018-06-18T07:28:34.518Z,17.70
2018-06-18T07:31:08.954Z,17.50
2018-06-18T07:36:17.288Z,17.70
2018-06-18T07:38:51.562Z,17.80
2018-06-18T07:41:25.765Z,17.90
2018-06-18T07:44:00.071Z,18.00
2018-06-18T07:46:34.298Z,18.10
2018-06-18T07:49:08.516Z,18.00
2018-06-18T07:51:42.937Z,18.20
2018-06-18T07:54:17.211Z,18.20
2018-06-18T07:56:51.378Z,18.40
2018-06-18T07:59:25.783Z,18.60
2018-06-18T08:02:00.068Z,18.70
2018-06-18T08:04:34.456Z,18.90
2018-06-18T08:07:08.638Z,18.80
2018-06-18T08:09:42.912Z,18.80
2018-06-18T08:12:17.074Z,18.80
2018-06-18T08:14:51.377Z,18.70
2018-06-18T08:17:25.800Z,18.60
2018-06-18T08:20:00.016Z,18.60
2018-06-18T08:22:34.195Z,18.60
2018-06-18T08:25:08.523Z,18.70
2018-06-18T08:27:43.146Z,18.80
2018-06-18T08:30:17.340Z,18.80
2018-06-18T08:32:51.544Z,18.80
2018-06-18T08:35:25.835Z,18.90
2018-06-18T08:38:00.079Z,18.90
2018-06-18T08:40:34.363Z,18.90
2018-06-18T08:43:08.778Z,18.90
2018-06-18T08:45:43.130Z,18.80
2018-06-18T08:49:21.310Z,18.90
2018-06-18T08:52:01.078Z,18.80
2018-06-18T08:57:20.349Z,18.80
2018-06-18T08:59:59.830Z,18.80
2018-06-18T09:02:34.164Z,18.90
2018-06-18T09:05:12.071Z,18.90
2018-06-18T09:07:51.887Z,19.00
2018-06-18T09:10:26.173Z,19.00
2018-06-18T09:13:00.725Z,19.10
2018-06-18T09:18:09.059Z,19.50
2018-06-18T09:20:43.466Z,19.50
2018-06-18T09:23:17.790Z,19.50
2018-06-18T09:25:58.577Z,19.40
2018-06-18T09:28:32.755Z,19.50
2018-06-18T09:31:06.995Z,19.50
2018-06-18T09:33:43.998Z,19.60
2018-06-18T09:36:18.184Z,19.70
2018-06-18T09:38:52.623Z,19.50
2018-06-18T09:41:26.900Z,19.80
2018-06-18T09:46:35.230Z,20.00
2018-06-18T09:49:14.863Z,20.20
2018-06-18T09:51:54.440Z,20.40
2018-06-18T09:54:34.043Z,20.20
2018-06-18T09:57:26.012Z,20.50
2018-06-18T10:00:07.574Z,20.70
2018-06-18T10:02:41.771Z,20.90
2018-06-18T10:05:16.104Z,20.80
2018-06-18T10:07:50.274Z,20.80
2018-06-18T10:10:24.587Z,20.90
2018-06-18T10:12:59.205Z,21.40
2018-06-18T10:15:33.401Z,21.40
2018-06-18T10:18:07.769Z,21.30
2018-06-18T10:20:42.044Z,21.60
2018-06-18T10:23:16.215Z,21.60
2018-06-18T10:25:50.544Z,21.60
2018-06-18T10:28:24.954Z,21.70
2018-06-18T10:30:59.267Z,21.80
2018-06-18T10:33:38.958Z,21.70
2018-06-18T10:36:18.734Z,21.90
2018-06-18T10:38:58.326Z,21.90
2018-06-18T10:41:38.132Z,21.80
2018-06-18T10:44:12.374Z,21.60
2018-06-18T10:46:46.698Z,21.60
2018-06-18T10:49:20.837Z,21.60
2018-06-18T10:51:55.164Z,21.80
2018-06-18T10:54:29.463Z,21.90
2018-06-18T10:57:03.838Z,21.90
2018-06-18T10:59:38.104Z,22.00
2018-06-18T11:02:12.400Z,21.90
2018-06-18T11:04:52.267Z,21.70
2018-06-18T11:07:26.478Z,21.60
2018-06-18T11:10:00.842Z,21.70
2018-06-18T11:12:35.064Z,21.70
2018-06-18T11:15:09.365Z,21.80
2018-06-18T11:18:47.355Z,21.80
2018-06-18T11:21:26.854Z,21.90
2018-06-18T11:24:06.423Z,22.10
2018-06-18T11:26:46.382Z,22.00
2018-06-18T11:29:20.575Z,22.10
2018-06-18T11:31:54.853Z,22.00
2018-06-18T11:34:29.251Z,22.00
2018-06-18T11:37:03.474Z,22.00
2018-06-18T11:39:37.785Z,22.60
2018-06-18T11:42:12.043Z,22.60
2018-06-18T11:44:46.405Z,22.40
2018-06-18T11:47:20.654Z,22.20
2018-06-18T11:49:55.270Z,22.50
2018-06-18T11:52:29.600Z,22.40
2018-06-18T11:55:03.888Z,22.60
2018-06-18T11:57:38.110Z,22.90
2018-06-18T12:02:21.398Z,23.00
2018-06-18T12:06:04.144Z,22.90
2018-06-18T12:08:43.770Z,23.00
2018-06-18T12:11:18.035Z,23.20
2018-06-18T12:13:52.258Z,23.30
2018-06-18T12:16:26.590Z,23.00
2018-06-18T12:19:01.018Z,23.20
2018-06-18T12:21:35.510Z,23.20
2018-06-18T12:24:09.702Z,23.10
2018-06-18T12:26:44.087Z,23.10
2018-06-18T12:29:18.226Z,23.00
2018-06-18T12:31:52.407Z,23.00
2018-06-18T12:34:26.725Z,23.00
2018-06-18T12:37:01.029Z,23.00
2018-06-18T12:39:35.265Z,23.00
2018-06-18T12:42:10.142Z,23.00
2018-06-18T12:44:49.956Z,23.20
2018-06-18T12:47:29.889Z,23.60
2018-06-18T12:50:09.510Z,23.80
2018-06-18T12:52:49.075Z,23.70
2018-06-18T12:55:28.623Z,23.80
2018-06-18T12:58:02.815Z,23.70
2018-06-18T13:00:37.106Z,23.40
2018-06-18T13:03:13.303Z,22.90
2018-06-18T13:05:47.587Z,22.90
2018-06-18T13:08:21.938Z,23.20
2018-06-18T13:10:56.224Z,23.30
2018-06-18T13:13:30.518Z,23.60
2018-06-18T13:16:04.931Z,23.80
2018-06-18T13:18:39.070Z,23.60
2018-06-18T13:21:13.388Z,23.50
2018-06-18T13:23:47.659Z,23.30
2018-06-18T13:26:21.914Z,23.20
2018-06-18T13:28:56.258Z,23.10
2018-06-18T13:34:04.642Z,23.20
2018-06-18T13:36:38.935Z,23.20
2018-06-18T13:39:18.619Z,22.90
2018-06-18T13:41:58.186Z,22.90
2018-06-18T13:44:37.923Z,22.70
2018-06-18T13:47:17.448Z,22.80
2018-06-18T13:49:55.051Z,22.90
2018-06-18T13:52:29.445Z,22.80
2018-06-18T13:55:03.672Z,22.90
2018-06-18T13:57:38.048Z,22.90
2018-06-18T14:00:12.502Z,22.90
2018-06-18T14:02:46.927Z,23.00
2018-06-18T14:05:21.083Z,23.00
2018-06-18T14:07:55.339Z,22.70
2018-06-18T14:10:29.622Z,22.90
2018-06-18T14:13:03.914Z,22.90
2018-06-18T14:15:38.228Z,22.90
2018-06-18T14:18:12.372Z,22.60
2018-06-18T14:20:46.762Z,22.60
2018-06-18T14:23:21.068Z,22.90
2018-06-18T14:25:55.410Z,22.80
2018-06-18T14:28:29.642Z,22.90
2018-06-18T14:31:09.639Z,22.80
2018-06-18T14:33:49.414Z,22.80
2018-06-18T14:36:29.096Z,22.70
2018-06-18T14:39:08.652Z,22.70
2018-06-18T14:41:42.820Z,22.50
2018-06-18T14:44:17.158Z,22.50
2018-06-18T14:46:51.602Z,22.40
2018-06-18T14:49:26.051Z,22.40
2018-06-18T14:52:00.283Z,22.40
2018-06-18T14:54:34.474Z,22.50
2018-06-18T14:57:09.030Z,22.40
2018-06-18T14:59:49.655Z,22.30
2018-06-18T15:02:23.858Z,22.50
2018-06-18T15:04:58.225Z,22.50
2018-06-18T15:07:32.491Z,22.60
2018-06-18T15:10:06.964Z,22.70
2018-06-18T15:12:47.443Z,22.80
2018-06-18T15:15:27.224Z,23.00
2018-06-18T15:18:01.504Z,23.10
2018-06-18T15:20:35.813Z,23.10
2018-06-18T15:23:10.558Z,23.00
2018-06-18T15:25:47.654Z,22.90
2018-06-18T15:28:21.992Z,22.70
2018-06-18T15:30:56.291Z,22.80
2018-06-18T15:33:30.670Z,22.70
2018-06-18T15:36:05.008Z,22.60
2018-06-18T15:38:39.269Z,22.40
2018-06-18T15:41:13.514Z,22.30
2018-06-18T15:43:47.883Z,22.10
2018-06-18T15:46:22.317Z,22.10
2018-06-18T15:48:56.632Z,22.00
2018-06-18T15:51:30.938Z,21.90
2018-06-18T15:54:05.655Z,21.90
2018-06-18T15:56:39.910Z,21.80
2018-06-18T15:59:14.091Z,21.50
2018-06-18T16:01:48.781Z,21.50
2018-06-18T16:04:23.044Z,21.60
2018-06-18T16:06:57.427Z,21.60
2018-06-18T16:09:31.753Z,21.70
2018-06-18T16:12:06.076Z,21.70
2018-06-18T16:14:40.314Z,21.70
2018-06-18T16:19:48.659Z,21.80
2018-06-18T16:24:56.910Z,21.60
2018-06-18T16:27:31.158Z,21.60
2018-06-18T16:30:05.640Z,21.70
2018-06-18T16:32:39.879Z,21.80
2018-06-18T16:35:14.171Z,21.60
2018-06-18T16:37:48.573Z,21.80
2018-06-18T16:40:22.753Z,21.80
2018-06-18T16:42:57.241Z,21.90
2018-06-18T16:45:31.403Z,22.00
2018-06-18T16:48:05.858Z,22.00
2018-06-18T16:50:40.087Z,22.00
2018-06-18T16:53:14.447Z,21.80
2018-06-18T16:55:48.629Z,21.70
2018-06-18T16:58:22.987Z,21.70
2018-06-18T17:00:57.238Z,21.80
2018-06-18T17:06:05.833Z,21.70
2018-06-18T17:08:40.102Z,21.60
2018-06-18T17:11:14.433Z,21.60
2018-06-18T17:13:48.755Z,21.70
2018-06-18T17:16:23.150Z,21.60
2018-06-18T17:18:57.558Z,21.30
2018-06-18T17:21:31.906Z,21.40
2018-06-18T17:24:06.281Z,21.40
2018-06-18T17:26:40.558Z,21.10
2018-06-18T17:29:14.845Z,20.90
2018-06-18T17:31:49.116Z,20.90
2018-06-18T17:34:23.420Z,21.00
2018-06-18T17:36:57.619Z,21.00
2018-06-18T17:39:31.989Z,21.00
2018-06-18T17:44:40.363Z,21.00
2018-06-18T17:47:14.658Z,21.10
2018-06-18T17:49:49.081Z,21.10
2018-06-18T17:52:23.622Z,21.00
2018-06-18T17:54:57.792Z,21.10
2018-06-18T17:57:31.930Z,21.10
2018-06-18T18:00:06.199Z,20.90
2018-06-18T18:02:40.562Z,21.00
2018-06-18T18:05:14.705Z,20.90
2018-06-18T18:07:49.111Z,20.80
2018-06-18T18:10:23.504Z,20.70
2018-06-18T18:12:57.912Z,20.80
2018-06-18T18:15:32.189Z,20.80
2018-06-18T18:18:06.510Z,20.80
2018-06-18T18:20:40.748Z,20.80
2018-06-18T18:23:15.290Z,20.90
2018-06-18T18:28:23.666Z,21.10
2018-06-18T18:30:57.909Z,21.10
2018-06-18T18:33:32.251Z,20.90
2018-06-18T18:36:06.622Z,20.90
2018-06-18T18:38:40.826Z,21.00
2018-06-18T18:41:15.095Z,21.00
2018-06-18T18:43:49.401Z,21.00
2018-06-18T18:46:23.774Z,20.90
2018-06-18T18:48:58.110Z,20.90
2018-06-18T18:51:32.291Z,20.80
2018-06-18T18:54:06.635Z,20.70
2018-06-18T18:57:27.259Z,20.70
2018-06-18T19:00:01.523Z,20.70
2018-06-18T19:02:35.842Z,20.80
2018-06-18T19:05:10.058Z,20.70
2018-06-18T19:07:44.841Z,20.70
2018-06-18T19:10:23.401Z,20.60
2018-06-18T19:12:59.614Z,20.80
2018-06-18T19:15:33.954Z,20.70
2018-06-18T19:18:08.658Z,20.70
2018-06-18T19:20:46.182Z,20.60
2018-06-18T19:23:20.510Z,20.70
2018-06-18T19:25:54.746Z,20.70
2018-06-18T19:28:29.167Z,20.60
2018-06-18T19:31:08.167Z,20.60
2018-06-18T19:33:50.108Z,20.50
2018-06-18T19:36:24.368Z,20.50
2018-06-18T19:38:58.690Z,20.50
2018-06-18T19:41:32.962Z,20.40
2018-06-18T19:44:07.235Z,20.40
2018-06-18T19:46:49.920Z,20.40
2018-06-18T19:49:24.077Z,20.50
2018-06-18T19:51:58.598Z,20.30
2018-06-18T19:54:35.354Z,20.40
2018-06-18T19:57:09.582Z,20.30
2018-06-18T19:59:43.775Z,20.30
2018-06-18T20:02:18.032Z,20.40
2018-06-18T20:04:52.326Z,20.20
2018-06-18T20:07:26.906Z,20.30
2018-06-18T20:10:01.074Z,20.40
2018-06-18T20:12:35.358Z,20.30
2018-06-18T20:15:11.806Z,20.40
2018-06-18T20:17:46.054Z,20.40
2018-06-18T20:20:20.358Z,20.40
2018-06-18T20:22:54.534Z,20.40
2018-06-18T20:25:33.028Z,20.30
2018-06-18T20:28:07.302Z,20.30
2018-06-18T20:30:41.597Z,20.10
2018-06-18T20:33:17.368Z,20.20
2018-06-18T20:35:59.393Z,20.30
2018-06-18T20:38:33.855Z,20.20
2018-06-18T20:41:08.846Z,20.30
2018-06-18T20:44:07.057Z,20.20
2018-06-18T20:46:41.329Z,20.10
2018-06-18T20:49:15.735Z,20.20
2018-06-18T20:51:50.055Z,20.20
2018-06-18T20:54:24.378Z,20.10
2018-06-18T20:56:58.869Z,20.20
2018-06-18T20:59:33.170Z,20.20
2018-06-18T21:02:07.433Z,20.20
2018-06-18T21:04:41.745Z,20.20
2018-06-18T21:07:16.074Z,20.20
2018-06-18T21:09:50.290Z,20.20
2018-06-18T21:12:24.608Z,20.20
2018-06-18T21:15:00.305Z,20.10
2018-06-18T21:17:34.471Z,20.10
2018-06-18T21:20:08.798Z,20.10
2018-06-18T21:22:43.131Z,20.10
2018-06-18T21:25:17.423Z,20.10
2018-06-18T21:27:51.837Z,20.10
2018-06-18T21:30:26.210Z,20.10
2018-06-18T21:33:00.834Z,20.10
2018-06-18T21:35:35.128Z,19.80
2018-06-18T21:38:09.375Z,19.90
2018-06-18T21:40:43.774Z,19.70
2018-06-18T21:43:17.966Z,19.80
2018-06-18T21:45:52.186Z,19.50
2018-06-18T21:48:26.468Z,19.70
2018-06-18T21:51:00.798Z,19.50
2018-06-18T21:53:35.122Z,19.50
2018-06-18T21:56:09.328Z,19.50
2018-06-18T21:58:43.574Z,19.40
2018-06-18T22:01:29.275Z,19.20
2018-06-18T22:04:03.506Z,19.20
2018-06-18T22:06:38.034Z,19.10
2018-06-18T22:09:16.172Z,19.20
2018-06-18T22:11:52.564Z,19.20
2018-06-18T22:14:26.823Z,18.90
2018-06-18T22:17:01.151Z,19.00
2018-06-18T22:19:35.544Z,19.00
2018-06-18T22:22:09.915Z,19.10
2018-06-18T22:24:44.199Z,19.00
2018-06-18T22:27:18.422Z,19.00
2018-06-18T22:29:52.799Z,18.90
2018-06-18T22:32:26.986Z,18.80
2018-06-18T22:35:01.295Z,18.80
2018-06-18T22:37:35.606Z,18.80
2018-06-18T22:40:09.857Z,18.80
2018-06-18T22:42:44.220Z,18.70
2018-06-18T22:45:18.462Z,18.70
2018-06-18T22:47:52.784Z,18.60
2018-06-18T22:50:27.008Z,18.60
2018-06-18T22:53:01.398Z,18.60
2018-06-18T22:55:35.764Z,18.60
2018-06-18T22:58:10.039Z,18.60
2018-06-18T23:00:44.346Z,18.60
2018-06-18T23:03:18.782Z,18.60
2018-06-18T23:05:53.242Z,18.60
2018-06-18T23:08:27.463Z,18.60
2018-06-18T23:11:01.779Z,18.60
2018-06-18T23:13:36.694Z,18.50
2018-06-18T23:16:10.844Z,18.50
2018-06-18T23:18:45.155Z,18.40
2018-06-18T23:21:19.503Z,18.40
2018-06-18T23:23:53.727Z,18.30
2018-06-18T23:26:28.161Z,18.30
2018-06-18T23:29:06.222Z,18.20
2018-06-18T23:31:40.390Z,18.30
2018-06-18T23:34:14.619Z,18.30
2018-06-18T23:36:48.874Z,18.30
2018-06-18T23:39:23.166Z,18.10
2018-06-18T23:41:58.082Z,18.00
2018-06-18T23:44:32.472Z,18.10
2018-06-18T23:47:06.629Z,18.10
2018-06-18T23:49:41.037Z,18.00
2018-06-18T23:52:15.382Z,18.00
2018-06-18T23:54:49.715Z,17.90
2018-06-18T23:57:23.985Z,17.30
2018-06-18T23:59:58.402Z,17.90
